createdAt,value
2022-09-28T00:02:05.940Z,4.30
2022-09-28T00:04:33.503Z,3.83
2022-09-28T00:07:00.404Z,4.03
2022-09-28T00:09:26.829Z,3.83
2022-09-28T00:11:57.020Z,3.70
2022-09-28T00:14:23.546Z,3.47
2022-09-28T00:16:50.365Z,3.85
2022-09-28T00:19:17.183Z,3.90
2022-09-28T00:21:43.670Z,3.88
2022-09-28T00:24:12.583Z,3.53
2022-09-28T00:26:41.009Z,3.20
2022-09-28T00:29:08.298Z,3.58
2022-09-28T00:31:35.490Z,3.65
2022-09-28T00:34:02.035Z,3.22
2022-09-28T00:36:29.526Z,2.67
2022-09-28T00:38:59.319Z,2.72
2022-09-28T00:41:26.810Z,2.90
2022-09-28T00:43:53.580Z,2.60
2022-09-28T00:46:23.623Z,2.90
2022-09-28T00:48:56.884Z,2.50
2022-09-28T00:51:24.857Z,2.63
2022-09-28T00:53:51.795Z,2.75
2022-09-28T00:56:21.074Z,2.83
2022-09-28T00:58:50.148Z,2.60
2022-09-28T01:01:16.802Z,2.80
2022-09-28T01:03:45.564Z,2.50
2022-09-28T01:06:18.421Z,2.53
2022-09-28T01:08:45.907Z,2.70
2022-09-28T01:11:12.276Z,2.63
2022-09-28T01:13:40.057Z,2.70
2022-09-28T01:16:12.992Z,2.88
2022-09-28T01:18:45.145Z,2.65
2022-09-28T01:21:11.444Z,2.70
2022-09-28T01:23:37.729Z,2.75
2022-09-28T01:26:22.917Z,2.47
2022-09-28T01:28:49.931Z,2.70
2022-09-28T01:31:17.843Z,2.70
2022-09-28T01:33:46.168Z,3.00
2022-09-28T01:36:19.443Z,2.45
2022-09-28T01:38:45.786Z,2.88
2022-09-28T01:41:13.208Z,2.88
2022-09-28T01:43:41.519Z,3.25
2022-09-28T01:46:13.442Z,2.60
2022-09-28T01:48:57.346Z,2.65
2022-09-28T01:51:26.718Z,2.50
2022-09-28T01:56:23.781Z,2.60
2022-09-28T01:58:53.116Z,2.28
2022-09-28T02:01:27.199Z,2.45
2022-09-28T02:04:14.265Z,2.83
2022-09-28T02:06:45.904Z,2.78
2022-09-28T02:09:16.436Z,2.58
2022-09-28T02:11:45.131Z,1.95
2022-09-28T02:14:13.497Z,2.00
2022-09-28T02:16:40.928Z,1.75
2022-09-28T02:19:09.900Z,1.83
2022-09-28T02:21:39.350Z,1.80
2022-09-28T02:26:34.642Z,2.13
2022-09-28T02:29:00.969Z,2.28
2022-09-28T02:31:27.939Z,2.40
2022-09-28T02:33:56.638Z,2.50
2022-09-28T02:36:24.678Z,2.73
2022-09-28T02:38:51.795Z,2.42
2022-09-28T02:41:24.038Z,2.67
2022-09-28T02:44:02.618Z,2.55
2022-09-28T02:46:35.110Z,2.27
2022-09-28T02:49:24.945Z,2.20
2022-09-28T02:52:07.446Z,1.52
2022-09-28T02:54:34.320Z,1.55
2022-09-28T02:57:00.788Z,1.35
2022-09-28T02:59:44.764Z,1.50
2022-09-28T03:02:17.028Z,1.60
2022-09-28T03:05:01.276Z,1.67
2022-09-28T03:07:29.835Z,1.80
2022-09-28T03:10:17.699Z,1.47
2022-09-28T03:12:46.036Z,1.63
2022-09-28T03:15:13.830Z,1.80
2022-09-28T03:17:40.560Z,1.42
2022-09-28T03:20:07.123Z,1.70
2022-09-28T03:22:33.499Z,1.73
2022-09-28T03:24:59.825Z,1.95
2022-09-28T03:27:26.518Z,2.38
2022-09-28T03:29:52.964Z,1.95
2022-09-28T03:32:19.280Z,1.95
2022-09-28T03:34:45.632Z,2.00
2022-09-28T03:37:12.092Z,1.73
2022-09-28T03:39:38.579Z,2.10
2022-09-28T03:42:04.991Z,1.80
2022-09-28T03:44:31.289Z,1.92
2022-09-28T03:46:57.933Z,1.83
2022-09-28T03:49:24.306Z,1.80
2022-09-28T03:51:50.654Z,2.05
2022-09-28T03:54:17.045Z,1.90
2022-09-28T03:56:43.334Z,1.77
2022-09-28T03:59:09.646Z,1.90
2022-09-28T04:01:36.150Z,1.70
2022-09-28T04:04:02.568Z,1.55
2022-09-28T04:06:28.881Z,1.95
2022-09-28T04:08:55.235Z,2.00
2022-09-28T04:11:21.559Z,1.88
2022-09-28T04:13:49.097Z,1.85
2022-09-28T04:16:16.312Z,1.98
2022-09-28T04:18:42.673Z,2.25
2022-09-28T04:21:11.458Z,1.73
2022-09-28T04:23:39.132Z,1.90
2022-09-28T04:26:06.421Z,1.52
2022-09-28T04:28:52.020Z,1.88
2022-09-28T04:31:19.787Z,1.60
2022-09-28T04:33:46.467Z,1.83
2022-09-28T04:36:13.103Z,1.95
2022-09-28T04:38:52.720Z,1.88
2022-09-28T04:41:20.335Z,2.08
2022-09-28T04:43:47.107Z,1.90
2022-09-28T04:46:13.694Z,1.77
2022-09-28T04:48:40.481Z,1.90
2022-09-28T04:51:07.067Z,1.58
2022-09-28T04:53:34.014Z,1.60
2022-09-28T04:56:00.441Z,1.60
2022-09-28T04:58:27.475Z,1.70
2022-09-28T05:00:56.951Z,1.95
2022-09-28T05:05:49.805Z,1.75
2022-09-28T05:08:22.424Z,1.98
2022-09-28T05:10:49.528Z,2.08
2022-09-28T05:13:18.752Z,1.73
2022-09-28T05:15:47.740Z,1.67
2022-09-28T05:18:14.381Z,1.60
2022-09-28T05:20:41.673Z,1.30
2022-09-28T05:23:09.833Z,1.20
2022-09-28T05:25:36.476Z,1.20
2022-09-28T05:28:03.486Z,0.90
2022-09-28T05:30:29.970Z,1.00
2022-09-28T05:32:56.379Z,0.98
2022-09-28T05:35:22.958Z,1.08
2022-09-28T05:37:50.145Z,1.00
2022-09-28T05:40:16.907Z,0.90
2022-09-28T05:42:43.391Z,0.93
2022-09-28T05:45:10.241Z,0.75
2022-09-28T05:47:40.376Z,0.95
2022-09-28T05:50:11.797Z,0.85
2022-09-28T05:52:38.700Z,0.77
2022-09-28T05:55:06.642Z,0.80
2022-09-28T05:57:33.030Z,0.85
2022-09-28T05:59:59.411Z,0.75
2022-09-28T06:02:26.215Z,0.70
2022-09-28T06:04:53.746Z,0.88
2022-09-28T06:07:20.928Z,0.60
2022-09-28T06:09:47.335Z,0.90
2022-09-28T06:12:15.874Z,0.75
2022-09-28T06:14:42.231Z,1.00
2022-09-28T06:17:08.690Z,0.80
2022-09-28T06:19:35.084Z,0.63
2022-09-28T06:22:04.479Z,0.90
2022-09-28T06:26:57.336Z,1.05
2022-09-28T06:29:23.700Z,0.65
2022-09-28T06:31:50.148Z,0.90
2022-09-28T06:34:17.232Z,0.57
2022-09-28T06:36:43.627Z,0.80
2022-09-28T06:39:09.983Z,0.95
2022-09-28T06:41:36.304Z,1.00
2022-09-28T06:44:03.708Z,0.93
2022-09-28T06:46:31.542Z,0.93
2022-09-28T06:48:57.964Z,0.90
2022-09-28T06:51:25.035Z,0.90
2022-09-28T06:53:53.863Z,1.00
2022-09-28T06:56:21.025Z,0.93
2022-09-28T06:58:47.824Z,1.00
2022-09-28T07:01:14.230Z,1.23
2022-09-28T07:03:40.758Z,1.13
2022-09-28T07:06:10.177Z,1.25
2022-09-28T07:11:05.890Z,1.30
2022-09-28T07:16:19.639Z,1.30
2022-09-28T07:18:47.911Z,1.30
2022-09-28T07:21:26.520Z,1.38
2022-09-28T07:23:54.992Z,1.17
2022-09-28T07:26:24.181Z,0.90
2022-09-28T07:28:51.612Z,1.20
2022-09-28T07:31:17.989Z,1.05
2022-09-28T07:33:44.795Z,1.20
2022-09-28T07:36:11.091Z,1.10
2022-09-28T07:38:38.307Z,0.90
2022-09-28T07:41:14.863Z,1.02
2022-09-28T07:43:41.766Z,1.17
2022-09-28T07:46:11.852Z,0.98
2022-09-28T07:48:42.364Z,0.88
2022-09-28T07:51:09.018Z,1.13
2022-09-28T07:53:35.827Z,0.90
2022-09-28T07:56:09.400Z,0.98
2022-09-28T07:58:36.600Z,0.93
2022-09-28T08:01:04.665Z,1.15
2022-09-28T08:03:31.070Z,0.85
2022-09-28T08:05:58.300Z,0.95
2022-09-28T08:08:24.605Z,1.27
2022-09-28T08:10:53.081Z,1.55
2022-09-28T08:13:22.226Z,1.10
2022-09-28T08:15:51.782Z,0.85
2022-09-28T08:18:18.301Z,1.23
2022-09-28T08:21:03.189Z,1.08
2022-09-28T08:23:29.556Z,1.00
2022-09-28T08:25:55.879Z,0.98
2022-09-28T08:28:23.724Z,1.00
2022-09-28T08:30:50.656Z,1.42
2022-09-28T08:33:17.944Z,1.35
2022-09-28T08:35:44.638Z,0.90
2022-09-28T08:38:11.211Z,1.13
2022-09-28T08:40:43.062Z,1.08
2022-09-28T08:43:20.399Z,1.10
2022-09-28T08:45:46.767Z,1.10
2022-09-28T08:48:41.795Z,1.23
2022-09-28T08:51:16.922Z,0.98
2022-09-28T08:53:52.475Z,1.10
2022-09-28T08:56:24.324Z,1.00
2022-09-28T08:58:52.947Z,0.95
2022-09-28T09:01:20.201Z,1.08
2022-09-28T09:03:47.627Z,0.95
2022-09-28T09:06:18.630Z,0.80
2022-09-28T09:08:48.159Z,1.00
2022-09-28T09:13:55.638Z,1.00
2022-09-28T09:16:41.069Z,0.90
2022-09-28T09:19:30.664Z,0.90
2022-09-28T09:22:01.949Z,0.95
2022-09-28T09:24:34.896Z,1.00
2022-09-28T09:27:04.658Z,0.80
2022-09-28T09:29:41.152Z,0.90
2022-09-28T09:32:26.311Z,1.10
2022-09-28T09:34:55.657Z,0.90
2022-09-28T09:40:16.141Z,0.80
2022-09-28T09:42:52.290Z,0.93
2022-09-28T09:45:21.783Z,0.82
2022-09-28T09:47:56.698Z,0.98
2022-09-28T09:50:32.039Z,0.70
2022-09-28T09:53:03.132Z,0.75
2022-09-28T09:55:30.188Z,0.80
2022-09-28T09:58:05.246Z,0.90
2022-09-28T10:00:32.224Z,0.70
2022-09-28T10:03:00.311Z,1.10
2022-09-28T10:05:29.184Z,0.60
2022-09-28T10:07:58.810Z,0.70
2022-09-28T10:10:27.835Z,0.80
2022-09-28T10:12:54.634Z,0.80
2022-09-28T10:15:25.772Z,0.82
2022-09-28T10:17:53.194Z,0.70
2022-09-28T10:20:19.948Z,0.80
2022-09-28T10:22:46.435Z,0.77
2022-09-28T10:25:15.568Z,0.60
2022-09-28T10:27:47.416Z,0.75
2022-09-28T10:30:23.899Z,0.60
2022-09-28T10:32:51.363Z,0.60
2022-09-28T10:35:23.889Z,0.70
2022-09-28T10:38:05.668Z,0.55
2022-09-28T10:40:41.020Z,0.68
2022-09-28T10:43:27.059Z,0.65
2022-09-28T10:46:07.440Z,0.57
2022-09-28T10:48:46.484Z,0.70
2022-09-28T10:51:12.812Z,0.52
2022-09-28T10:53:39.354Z,0.50
2022-09-28T10:56:05.743Z,0.60
2022-09-28T10:58:36.364Z,0.60
2022-09-28T11:01:04.874Z,0.60
2022-09-28T11:03:31.622Z,0.70
2022-09-28T11:06:00.596Z,0.57
2022-09-28T11:08:32.769Z,0.55
2022-09-28T11:11:12.806Z,0.50
2022-09-28T11:13:40.481Z,0.75
2022-09-28T11:16:07.051Z,0.93
2022-09-28T11:18:34.414Z,0.60
2022-09-28T11:21:13.398Z,0.75
2022-09-28T11:23:41.481Z,0.65
2022-09-28T11:26:09.054Z,0.63
2022-09-28T11:28:39.153Z,0.70
2022-09-28T11:31:07.817Z,0.73
2022-09-28T11:33:42.286Z,0.80
2022-09-28T11:36:14.509Z,0.60
2022-09-28T11:38:40.825Z,0.70
2022-09-28T11:41:13.480Z,0.70
2022-09-28T11:43:45.929Z,0.90
2022-09-28T11:46:34.567Z,0.70
2022-09-28T11:49:04.115Z,0.75
2022-09-28T11:51:31.691Z,0.70
2022-09-28T11:54:14.236Z,0.60
2022-09-28T11:56:43.808Z,0.70
2022-09-28T11:59:28.573Z,0.80
2022-09-28T12:02:00.884Z,0.80
2022-09-28T12:04:42.483Z,0.75
2022-09-28T12:07:12.648Z,0.75
2022-09-28T12:09:43.473Z,0.80
2022-09-28T12:12:17.894Z,1.00
2022-09-28T12:14:45.171Z,0.60
2022-09-28T12:17:20.554Z,0.80
2022-09-28T12:20:05.402Z,0.80
2022-09-28T12:22:33.481Z,0.70
2022-09-28T12:25:01.866Z,0.85
2022-09-28T12:27:32.522Z,0.68
2022-09-28T12:30:05.043Z,0.70
2022-09-28T12:32:49.451Z,0.90
2022-09-28T12:35:19.739Z,0.80
2022-09-28T12:37:58.681Z,0.63
2022-09-28T12:40:48.277Z,0.90
2022-09-28T12:43:14.679Z,0.77
2022-09-28T12:46:13.421Z,0.63
2022-09-28T12:49:03.010Z,0.68
2022-09-28T12:51:35.292Z,0.50
2022-09-28T12:54:18.776Z,0.60
2022-09-28T12:57:08.513Z,0.60
2022-09-28T12:59:34.812Z,0.70
2022-09-28T13:02:04.713Z,0.63
2022-09-28T13:04:54.476Z,0.75
2022-09-28T13:07:21.077Z,1.00
2022-09-28T13:10:13.971Z,0.70
2022-09-28T13:12:40.314Z,0.68
2022-09-28T13:15:27.520Z,0.60
2022-09-28T13:18:01.775Z,0.57
2022-09-28T13:20:39.282Z,0.73
2022-09-28T13:23:05.581Z,0.70
2022-09-28T13:25:34.159Z,0.50
2022-09-28T13:28:02.848Z,0.77
2022-09-28T13:30:29.561Z,0.63
2022-09-28T13:32:57.288Z,0.73
2022-09-28T13:35:24.144Z,1.10
2022-09-28T13:38:09.350Z,0.70
2022-09-28T13:40:54.624Z,0.80
2022-09-28T13:43:30.377Z,0.70
2022-09-28T13:46:00.293Z,0.80
2022-09-28T13:48:37.208Z,0.70
2022-09-28T13:51:03.543Z,0.60
2022-09-28T13:53:29.819Z,0.73
2022-09-28T13:55:59.334Z,0.70
2022-09-28T13:58:36.067Z,0.70
2022-09-28T14:01:11.348Z,0.73
2022-09-28T14:03:44.010Z,0.88
2022-09-28T14:06:30.560Z,1.00
2022-09-28T14:09:18.870Z,0.80
2022-09-28T14:11:48.663Z,1.03
2022-09-28T14:14:16.013Z,1.10
2022-09-28T14:16:42.417Z,1.20
2022-09-28T14:19:08.680Z,0.70
2022-09-28T14:21:43.597Z,1.00
2022-09-28T14:24:33.027Z,1.00
2022-09-28T14:27:18.697Z,0.90
2022-09-28T14:29:59.835Z,0.80
2022-09-28T14:32:35.008Z,0.95
2022-09-28T14:35:04.636Z,1.00
2022-09-28T14:37:51.279Z,1.10
2022-09-28T14:40:39.701Z,0.90
2022-09-28T14:43:24.558Z,0.90
2022-09-28T14:45:53.148Z,0.95
2022-09-28T14:48:20.559Z,0.98
2022-09-28T14:50:50.149Z,0.95
2022-09-28T14:53:20.912Z,0.93
2022-09-28T14:55:50.132Z,1.10
2022-09-28T14:58:19.648Z,1.00
2022-09-28T15:00:46.483Z,1.00
2022-09-28T15:03:14.187Z,1.13
2022-09-28T15:05:44.535Z,0.90
2022-09-28T15:08:11.850Z,1.17
2022-09-28T15:10:41.971Z,1.38
2022-09-28T15:13:24.307Z,1.38
2022-09-28T15:15:52.380Z,1.15
2022-09-28T15:18:18.760Z,1.50
2022-09-28T15:20:49.449Z,1.20
2022-09-28T15:23:25.412Z,1.13
2022-09-28T15:25:52.236Z,1.00
2022-09-28T15:28:22.083Z,0.88
2022-09-28T15:30:48.560Z,1.35
2022-09-28T15:33:50.605Z,0.82
2022-09-28T15:36:25.364Z,0.80
2022-09-28T15:38:56.697Z,0.73
2022-09-28T15:41:24.528Z,1.15
2022-09-28T15:44:04.298Z,1.05
2022-09-28T15:46:30.768Z,1.05
2022-09-28T15:48:59.487Z,1.00
2022-09-28T15:51:27.541Z,1.10
2022-09-28T15:54:09.208Z,0.93
2022-09-28T15:56:50.809Z,1.10
2022-09-28T15:59:23.093Z,1.20
2022-09-28T16:02:05.106Z,1.00
2022-09-28T16:04:38.779Z,1.00
2022-09-28T16:07:05.244Z,0.98
2022-09-28T16:09:31.803Z,1.00
2022-09-28T16:11:59.116Z,1.08
2022-09-28T16:14:27.407Z,1.20
2022-09-28T16:16:55.267Z,1.10
2022-09-28T16:19:27.393Z,1.10
2022-09-28T16:21:57.951Z,1.30
2022-09-28T16:24:42.844Z,1.10
2022-09-28T16:27:23.157Z,1.05
2022-09-28T16:30:24.335Z,1.23
2022-09-28T16:32:51.939Z,1.50
2022-09-28T16:35:25.898Z,1.48
2022-09-28T16:37:58.194Z,1.60
2022-09-28T16:40:24.684Z,1.27
2022-09-28T16:42:51.475Z,1.50
2022-09-28T16:45:19.798Z,1.40
2022-09-28T16:47:47.203Z,1.70
2022-09-28T16:50:16.929Z,1.40
2022-09-28T16:53:01.952Z,1.30
2022-09-28T16:55:40.057Z,1.80
2022-09-28T16:58:07.438Z,1.70
2022-09-28T17:00:33.798Z,1.88
2022-09-28T17:03:00.231Z,1.65
2022-09-28T17:05:26.550Z,1.60
2022-09-28T17:07:59.503Z,1.88
2022-09-28T17:10:30.882Z,2.22
2022-09-28T17:12:57.195Z,2.47
2022-09-28T17:15:25.993Z,2.15
2022-09-28T17:17:52.383Z,2.75
2022-09-28T17:20:21.365Z,2.40
2022-09-28T17:22:48.356Z,1.90
2022-09-28T17:25:14.690Z,1.30
2022-09-28T17:27:43.824Z,1.50
2022-09-28T17:30:11.822Z,1.60
2022-09-28T17:32:39.433Z,1.13
2022-09-28T17:35:23.503Z,0.90
2022-09-28T17:37:50.309Z,1.08
2022-09-28T17:40:16.669Z,0.98
2022-09-28T17:42:43.226Z,1.33
2022-09-28T17:45:09.665Z,0.80
2022-09-28T17:47:36.038Z,0.80
2022-09-28T17:50:02.500Z,0.90
2022-09-28T17:52:28.915Z,0.90
2022-09-28T17:54:55.222Z,0.90
2022-09-28T17:57:21.570Z,1.10
2022-09-28T17:59:47.913Z,0.98
2022-09-28T18:02:14.332Z,1.10
2022-09-28T18:04:51.826Z,1.15
2022-09-28T18:07:18.873Z,1.00
2022-09-28T18:09:48.773Z,1.10
2022-09-28T18:12:15.165Z,1.20
2022-09-28T18:14:41.538Z,0.93
2022-09-28T18:17:07.843Z,1.20
2022-09-28T18:19:34.142Z,1.17
2022-09-28T18:22:01.407Z,0.90
2022-09-28T18:24:27.926Z,1.05
2022-09-28T18:26:54.445Z,1.08
2022-09-28T18:29:20.788Z,0.90
2022-09-28T18:31:48.756Z,1.10
2022-09-28T18:34:15.581Z,1.10
2022-09-28T18:36:42.041Z,1.17
2022-09-28T18:39:08.713Z,1.27
2022-09-28T18:41:35.120Z,1.30
2022-09-28T18:44:01.524Z,1.25
2022-09-28T18:46:28.902Z,1.40
2022-09-28T18:48:55.431Z,1.30
2022-09-28T18:51:22.332Z,1.52
2022-09-28T18:53:48.717Z,1.33
2022-09-28T18:56:18.213Z,1.27
2022-09-28T18:58:47.573Z,1.40
2022-09-28T19:03:56.537Z,1.30
2022-09-28T19:06:22.865Z,1.30
2022-09-28T19:08:53.036Z,1.20
2022-09-28T19:11:19.412Z,1.15
2022-09-28T19:13:45.802Z,1.20
2022-09-28T19:16:20.851Z,1.08
2022-09-28T19:18:47.768Z,1.10
2022-09-28T19:21:14.737Z,1.02
2022-09-28T19:23:44.790Z,0.80
2022-09-28T19:26:16.235Z,0.90
2022-09-28T19:28:43.101Z,0.95
2022-09-28T19:31:10.890Z,0.80
2022-09-28T19:33:38.184Z,0.80
2022-09-28T19:36:06.276Z,0.85
2022-09-28T19:38:33.604Z,0.80
2022-09-28T19:41:00.382Z,0.90
2022-09-28T19:43:27.373Z,0.73
2022-09-28T19:45:55.973Z,0.80
2022-09-28T19:48:26.314Z,0.93
2022-09-28T19:50:56.677Z,0.70
2022-09-28T19:53:23.625Z,0.80
2022-09-28T19:55:50.854Z,0.60
2022-09-28T19:58:17.760Z,0.80
2022-09-28T20:00:53.940Z,0.70
2022-09-28T20:03:23.084Z,0.88
2022-09-28T20:05:49.536Z,1.10
2022-09-28T20:08:16.537Z,0.80
2022-09-28T20:10:52.151Z,1.10
2022-09-28T20:13:18.739Z,0.70
2022-09-28T20:15:51.633Z,0.80
2022-09-28T20:18:19.345Z,1.00
2022-09-28T20:20:51.364Z,0.95
2022-09-28T20:23:18.339Z,1.02
2022-09-28T20:25:44.711Z,0.90
2022-09-28T20:28:11.006Z,1.08
2022-09-28T20:30:38.412Z,0.80
2022-09-28T20:33:07.429Z,0.98
2022-09-28T20:35:34.071Z,1.00
2022-09-28T20:38:08.032Z,1.10
2022-09-28T20:40:38.528Z,1.00
2022-09-28T20:43:06.399Z,1.00
2022-09-28T20:45:35.362Z,1.13
2022-09-28T20:48:04.764Z,0.80
2022-09-28T20:52:57.542Z,0.80
2022-09-28T20:55:23.928Z,0.70
2022-09-28T20:57:50.274Z,0.63
2022-09-28T21:00:16.807Z,0.80
2022-09-28T21:02:43.220Z,0.80
2022-09-28T21:05:09.657Z,0.65
2022-09-28T21:07:36.297Z,0.70
2022-09-28T21:10:02.625Z,0.60
2022-09-28T21:12:29.506Z,0.70
2022-09-28T21:14:55.847Z,0.80
2022-09-28T21:17:22.926Z,0.65
2022-09-28T21:19:49.256Z,1.15
2022-09-28T21:22:15.639Z,1.30
2022-09-28T21:24:42.077Z,1.45
2022-09-28T21:27:08.473Z,1.40
2022-09-28T21:29:35.300Z,1.25
2022-09-28T21:32:01.777Z,0.98
2022-09-28T21:34:28.149Z,0.70
2022-09-28T21:36:54.704Z,0.80
2022-09-28T21:39:21.141Z,0.57
2022-09-28T21:41:47.476Z,0.50
2022-09-28T21:44:13.822Z,0.70
2022-09-28T21:46:40.213Z,0.90
2022-09-28T21:49:07.594Z,0.50
2022-09-28T21:51:34.682Z,0.40
2022-09-28T21:54:01.050Z,0.60
2022-09-28T21:56:27.769Z,0.50
2022-09-28T21:58:54.153Z,0.47
2022-09-28T22:01:21.914Z,0.43
2022-09-28T22:03:50.504Z,0.40
2022-09-28T22:06:18.389Z,0.57
2022-09-28T22:08:45.460Z,0.60
2022-09-28T22:11:12.925Z,0.50
2022-09-28T22:13:41.364Z,1.48
2022-09-28T22:16:08.448Z,0.55
2022-09-28T22:18:49.946Z,0.52
2022-09-28T22:21:20.690Z,0.40
2022-09-28T22:23:47.400Z,0.40
2022-09-28T22:26:17.852Z,0.50
2022-09-28T22:28:46.241Z,0.50
2022-09-28T22:31:13.227Z,0.30
2022-09-28T22:33:40.427Z,0.55
2022-09-28T22:36:07.845Z,0.40
2022-09-28T22:38:37.319Z,0.50
2022-09-28T22:43:30.824Z,0.47
2022-09-28T22:46:01.071Z,0.35
2022-09-28T22:48:27.544Z,0.47
2022-09-28T22:50:53.904Z,0.40
2022-09-28T22:53:20.229Z,0.40
2022-09-28T22:55:47.217Z,0.40
2022-09-28T22:58:13.875Z,1.05
2022-09-28T23:00:40.285Z,0.50
2022-09-28T23:03:06.647Z,0.55
2022-09-28T23:05:33.042Z,0.52
2022-09-28T23:07:59.421Z,0.68
2022-09-28T23:10:25.738Z,0.63
2022-09-28T23:12:55.439Z,0.50
2022-09-28T23:15:22.562Z,0.65
2022-09-28T23:17:52.699Z,0.90
2022-09-28T23:20:19.387Z,0.60
2022-09-28T23:22:47.446Z,0.50
2022-09-28T23:25:14.359Z,0.47
2022-09-28T23:27:44.247Z,0.40
2022-09-28T23:30:11.161Z,0.47
2022-09-28T23:32:37.495Z,0.52
2022-09-28T23:35:03.918Z,0.35
2022-09-28T23:37:30.234Z,0.30
2022-09-28T23:39:56.612Z,0.65
2022-09-28T23:42:22.898Z,0.40
2022-09-28T23:44:49.242Z,0.40
2022-09-28T23:47:15.551Z,0.40
2022-09-28T23:49:41.846Z,0.40
2022-09-28T23:52:08.544Z,0.40
2022-09-28T23:54:34.939Z,0.32
2022-09-28T23:57:01.239Z,0.35
2022-09-28T23:59:27.530Z,0.50
